Decoded Metar for SASA (SALTA in ARGENTINA) (IATA:SLA) | Meteo·Mobile Aviation Weather
aviador You're here:

SASA Decoded Metar

SALTA in ARGENTINA
Report Time2019-02-16 01:00:00
UTC Time2019-02-16 01:52:03
Flight Rules vfr VFR
Wind050° at 06 kt
W.Decomp.*RWY 06: 6.0 kt HW 0.5 kt LCW
RWY 02: 4.9 kt HW 3.4 kt RCW
W.Rank050° ranks 1
Current wind is above 050° avg. (5.9)
Visibility9999 m
Phenomena:N/A
Clouds:N/A
Expected CloudBase > 3,200 ft AGL from Temp-Dew spread
CeilingNone
Temp21°C (ISA +14)
Dew Point13°C (60% RH)
AAT19.8°C
QNH1020 hPa
Density Alt5,577 ft
Elevation3,990 ft
Report Wrong Elevation
Raw Report
SASA 160100Z 05006KT CAVOK 21/13 Q1020=

Extra information for SASA:More info

Metar Taf Metar & Taf Last 4 Metars F.Rules Stats Wind Profile Meteogram Temp Stats Airport Information Weather charts Add Link Nearby VenuesMetar ALERT Operation Metar Decoded Social comments